Aérodrome :
LOGIN :

S'inscrire | Disclaimer

   EN    FR    IT 

 










Légende :    VFR   VFR Marginal   IFR   IFR Intensif   IFR Très Intensif
Visi : 
Plafond : 
>= 8 km
>= 3000ft
5 à 8 km
1000 à 3000 ft
1500m à 5 km
500 à 1000 ft
800 à 1500m
200 à 500 ft
< 800m
< 200 ft
Symboles :   Orages  Brouillard  Fortes neiges  Fortes précipitations  Vent > 20 kt
SIGMETs :   Divers  Orages  Givrage  Turbulence  Onde Orograph.  Cendres Volcan.






- Altitude de l'aérodrome : 256 ft
- Code IATA : KUN


EYKA - Kaunas

DERNIER METAR :
  • 191920Z 21006KT 160V250 9999 -RA OVC029 05/00 Q1010 R08/290095

METARs EXPIRÉS :
  • 191850Z 21006KT 160V250 9999 BKN034 OVC045 05/M00 Q1010 R08/290095
  • 191820Z 20006KT 160V260 9999 OVC040 05/M00 Q1009 R08/290095
  • 191750Z 20006KT 150V250 9999 FEW042 BKN091 05/M00 Q1009 R08/290095
  • 191720Z 21007KT 160V260 CAVOK 05/M00 Q1009 R08/290095
  • 191650Z 20007KT 160V250 CAVOK 05/00 Q1009 R08/290095

TAF TAF EYKA
Valide du 19 à 18h jusqu'au 20 à 18h UTC


191707Z 1918/2018 VRB05KT 8000 SCT020
TEMPO 1918/1924 5000 SHRA SCT005 BKN015CB
BECMG 2000/2001 BKN010
TEMPO 2001/2006 3000 RA BR BKN005
BECMG 2010/2012 BKN020



MET'MAP, la Météo Aéronautique d'un coup d'oeil ! - Copyright ORBIFLY Décembre 2007 - Disclaimer

ORBIFLY MET'MAP TEAM :

Programmation & Développement : Alexandra Zaïnal
Sur une idée originale de : Baudouin d'Aumeries
Assistance à la programmation : Marc-Olivier Méhu
Soutien technique & logistique : Manuel Goepfert

Contact : metmap@orbifly.com




SOURCES & CREDITS :

   NOAA